Time;durP1;ratioP1;P1;durP2;ratioP2;P2;SDS_P1;SDS_P2;PMS_P1;PMS_P2;Temp;Humidity;BMP_temperature;BMP_pressure;BME280_temperature;BME280_humidity;BME280_pressure;Samples;Min_cycle;Max_cycle;Signal;HPM_P1;HPM_P2
2021/05/25 00:01:57;;;;;;;;;;;;;;;21.08;36.48;99561.28;4435077;32;20300;-58
2021/05/25 00:04:23;;;;;;;;;;;;;;;21.10;36.32;99567.44;4425750;32;19958;-57
2021/05/25 00:06:49;;;;;;;;;;;;;;;21.08;36.39;99566.56;4420138;32;19969;-58
2021/05/25 00:09:15;;;;;;;;;;;;;;;21.03;36.66;99570.09;4426935;32;19950;-58
2021/05/25 00:11:41;;;;;;;;;;;;;;;21.02;36.47;99563.03;4434635;32;20014;-58
2021/05/25 00:14:07;;;;;;;;;;;;;;;21.02;36.41;99563.03;4428435;32;19938;-56
2021/05/25 00:16:33;;;;;;;;;;;;;;;21.00;36.23;99563.94;4421281;32;19961;-58
2021/05/25 00:18:59;;;;;;;;;;;;;;;20.89;36.72;99561.31;4416038;32;19957;-58
2021/05/25 00:21:25;;;;;;;;;;;;;;;20.87;36.66;99569.28;4434228;32;20030;-58
2021/05/25 00:23:51;;;;;;;;;;;;;;;20.92;36.38;99571.88;4431672;32;19950;-58
2021/05/25 00:26:17;;;;;;;;;;;;;;;21.01;36.16;99571.84;4419505;32;19994;-57
2021/05/25 00:28:43;;;;;;;;;;;;;;;20.95;36.27;99565.69;4422092;32;19957;-58
2021/05/25 00:31:08;;;;;;;;;;;;;;;20.87;36.51;99563.09;4434241;32;19950;-57
2021/05/25 00:33:34;;;;;;;;;;;;;;;20.91;36.49;99564.81;4432934;32;19953;-58
2021/05/25 00:36:00;;;;;;;;;;;;;;;20.90;36.46;99565.72;4419057;32;19943;-55
2021/05/25 00:38:26;;;;;;;;;;;;;;;20.90;36.31;99573.66;4419251;32;19942;-57
2021/05/25 00:40:52;;;;;;;;;;;;;;;20.85;36.44;99570.16;4432038;32;19984;-58
2021/05/25 00:43:18;;;;;;;;;;;;;;;20.78;36.50;99570.12;4418940;32;19950;-57
2021/05/25 00:45:44;;;;;;;;;;;;;;;20.79;36.25;99561.28;4433464;32;19961;-58
2021/05/25 00:48:10;;;;;;;;;;;;;;;20.73;36.56;99560.44;4433173;32;19973;-57
2021/05/25 00:50:37;;;;;;;;;;;;;;;20.77;36.58;99567.50;4433944;32;20335;-56
2021/05/25 00:53:03;;;;;;;;;;;;;;;20.70;36.41;99576.31;4434197;32;19976;-57
2021/05/25 00:55:29;;;;;;;;;;;;;;;20.66;36.49;99575.44;4423996;32;20335;-57
2021/05/25 00:57:55;;;;;;;;;;;;;;;20.69;36.39;99580.75;4418998;32;19956;-57
2021/05/25 01:00:21;;;;;;;;;;;;;;;20.72;36.39;99585.12;4428147;32;19966;-58
2021/05/25 01:02:47;;;;;;;;;;;;;;;20.75;36.47;99586.00;4433802;32;19985;-57
2021/05/25 01:05:13;;;;;;;;;;;;;;;20.75;36.43;99587.78;4425914;32;20382;-58
2021/05/25 01:07:39;;;;;;;;;;;;;;;20.76;36.14;99598.34;4419113;32;19972;-57
2021/05/25 01:10:06;;;;;;;;;;;;;;;20.69;36.18;99591.31;4425248;32;19972;-57
2021/05/25 01:12:34;;;;;;;;;;;;;;;20.71;36.21;99593.94;4434460;32;19964;-57
2021/05/25 01:15:03;;;;;;;;;;;;;;;20.75;36.12;99591.28;4428655;32;20279;-58
2021/05/25 01:17:29;;;;;;;;;;;;;;;20.77;36.42;99589.53;4418142;32;19973;-58
2021/05/25 01:19:55;;;;;;;;;;;;;;;20.74;35.86;99594.81;4422671;32;19954;-58
2021/05/25 01:22:21;;;;;;;;;;;;;;;20.76;35.86;99598.34;4420366;32;20581;-58
2021/05/25 01:24:47;;;;;;;;;;;;;;;20.73;36.21;99603.66;4430436;32;20011;-58
2021/05/25 01:27:13;;;;;;;;;;;;;;;20.72;36.06;99593.06;4418393;32;20495;-58
2021/05/25 01:29:39;;;;;;;;;;;;;;;20.66;36.36;99601.88;4420038;32;19987;-58
2021/05/25 01:32:05;;;;;;;;;;;;;;;20.71;36.05;99605.44;4433403;32;19960;-58
2021/05/25 01:34:31;;;;;;;;;;;;;;;20.74;35.97;99609.81;4432582;32;20105;-58
2021/05/25 01:36:57;;;;;;;;;;;;;;;20.73;36.20;99608.94;4419005;32;20636;-58
2021/05/25 01:39:23;;;;;;;;;;;;;;;20.78;35.68;99611.59;4417899;32;20094;-57
2021/05/25 01:41:49;;;;;;;;;;;;;;;20.74;36.06;99608.06;4433438;32;19973;-58
2021/05/25 01:44:14;;;;;;;;;;;;;;;20.77;35.73;99602.75;4433406;32;19966;-58
2021/05/25 01:46:40;;;;;;;;;;;;;;;20.81;35.79;99600.13;4420981;32;19954;-58
2021/05/25 01:49:06;;;;;;;;;;;;;;;20.74;35.79;99610.69;4416581;32;20030;-58
2021/05/25 01:51:32;;;;;;;;;;;;;;;20.79;35.62;99603.63;4430371;32;19968;-58
2021/05/25 01:53:58;;;;;;;;;;;;;;;20.74;35.87;99594.81;4433847;32;20723;-58
2021/05/25 01:56:24;;;;;;;;;;;;;;;20.69;35.77;99612.50;4423027;32;19953;-58
2021/05/25 01:58:50;;;;;;;;;;;;;;;20.70;35.72;99610.72;4416292;32;19962;-58
2021/05/25 02:01:16;;;;;;;;;;;;;;;20.74;35.69;99605.41;4427146;32;19968;-58
2021/05/25 02:03:42;;;;;;;;;;;;;;;20.75;35.46;99595.72;4432698;32;19954;-58
2021/05/25 02:06:08;;;;;;;;;;;;;;;20.74;35.45;99605.41;4426038;32;19954;-58
2021/05/25 02:08:33;;;;;;;;;;;;;;;20.73;35.77;99603.66;4417885;32;19973;-57
2021/05/25 02:11:00;;;;;;;;;;;;;;;20.70;35.47;99598.38;4424232;32;19969;-58
2021/05/25 02:13:25;;;;;;;;;;;;;;;20.74;35.35;99605.41;4415698;32;19950;-57
2021/05/25 02:15:51;;;;;;;;;;;;;;;20.72;35.81;99607.19;4423397;32;19960;-58
2021/05/25 02:18:17;;;;;;;;;;;;;;;20.74;35.37;99605.41;4432105;32;19986;-58
2021/05/25 02:20:43;;;;;;;;;;;;;;;20.76;35.34;99608.94;4432689;32;19963;-58
2021/05/25 02:23:09;;;;;;;;;;;;;;;20.77;35.65;99597.47;4433081;32;19980;-58
2021/05/25 02:25:35;;;;;;;;;;;;;;;20.77;35.32;99599.25;4431534;32;19980;-58
2021/05/25 02:28:02;;;;;;;;;;;;;;;20.74;35.67;99605.41;4417521;32;20208;-58
2021/05/25 02:30:28;;;;;;;;;;;;;;;20.75;35.50;99603.66;4418220;32;20307;-58
2021/05/25 02:32:54;;;;;;;;;;;;;;;20.74;35.77;99605.41;4432899;32;19968;-58
2021/05/25 02:35:20;;;;;;;;;;;;;;;20.73;36.09;99615.97;4433140;32;19966;-58
2021/05/25 02:37:46;;;;;;;;;;;;;;;20.72;35.69;99606.28;4418489;32;19962;-58
2021/05/25 02:40:11;;;;;;;;;;;;;;;20.73;35.57;99603.66;4416923;32;20014;-56
2021/05/25 02:42:37;;;;;;;;;;;;;;;20.68;35.73;99607.19;4431454;32;19976;-58
2021/05/25 02:45:03;;;;;;;;;;;;;;;20.67;35.71;99608.94;4432819;32;19964;-57
2021/05/25 02:47:29;;;;;;;;;;;;;;;20.68;35.89;99610.72;4420105;32;20017;-58
2021/05/25 02:49:55;;;;;;;;;;;;;;;20.67;35.80;99608.06;4416792;32;20051;-58
2021/05/25 02:52:21;;;;;;;;;;;;;;;20.64;36.63;99611.59;4417702;32;20390;-58
2021/05/25 02:54:47;;;;;;;;;;;;;;;20.64;35.70;99614.25;4417875;32;19982;-57
2021/05/25 02:57:13;;;;;;;;;;;;;;;20.68;35.68;99609.84;4426386;32;20327;-57
2021/05/25 02:59:39;;;;;;;;;;;;;;;20.63;36.03;99612.47;4432686;32;19976;-58
2021/05/25 03:02:04;;;;;;;;;;;;;;;20.60;35.58;99607.19;4425030;32;19961;-58
2021/05/25 03:04:30;;;;;;;;;;;;;;;20.63;35.86;99604.53;4416536;32;19947;-57
2021/05/25 03:06:56;;;;;;;;;;;;;;;20.61;35.96;99609.81;4423472;32;19989;-58
2021/05/25 03:09:22;;;;;;;;;;;;;;;20.60;36.02;99605.41;4432042;32;19969;-58
2021/05/25 03:11:48;;;;;;;;;;;;;;;20.59;35.79;99610.72;4427974;32;19955;-58
2021/05/25 03:14:14;;;;;;;;;;;;;;;20.59;36.12;99616.03;4416372;32;19961;-58
2021/05/25 03:16:40;;;;;;;;;;;;;;;20.60;35.77;99612.50;4421052;32;19954;-58
2021/05/25 03:19:06;;;;;;;;;;;;;;;20.59;35.96;99616.03;4430416;32;20297;-58
2021/05/25 03:21:31;;;;;;;;;;;;;;;20.58;35.87;99614.25;4430278;32;19993;-58
2021/05/25 03:23:57;;;;;;;;;;;;;;;20.56;35.67;99624.81;4417454;32;20032;-57
2021/05/25 03:26:23;;;;;;;;;;;;;;;20.59;36.11;99621.31;4417956;32;20076;-59
2021/05/25 03:28:49;;;;;;;;;;;;;;;20.59;36.03;99619.53;4431334;32;20005;-58
2021/05/25 03:31:15;;;;;;;;;;;;;;;20.68;35.94;99626.59;4431983;32;19997;-58
2021/05/25 03:33:41;;;;;;;;;;;;;;;20.68;35.75;99620.41;4416193;32;20384;-58
2021/05/25 03:36:07;;;;;;;;;;;;;;;20.65;35.82;99621.28;4417285;32;19981;-58
2021/05/25 03:38:33;;;;;;;;;;;;;;;20.63;35.93;99626.59;4430024;32;19950;-56
2021/05/25 03:40:59;;;;;;;;;;;;;;;20.62;35.89;99626.59;4432325;32;19962;-58
2021/05/25 03:43:24;;;;;;;;;;;;;;;20.60;35.56;99634.50;4419956;32;19970;-58
2021/05/25 03:45:50;;;;;;;;;;;;;;;20.60;35.82;99633.66;4417466;32;19950;-58
2021/05/25 03:48:19;;;;;;;;;;;;;;;20.57;36.02;99634.53;4425846;32;19995;-55
2021/05/25 03:50:45;;;;;;;;;;;;;;;20.52;36.09;99633.66;4431613;32;19996;-58
2021/05/25 03:53:11;;;;;;;;;;;;;;;20.57;35.86;99634.53;4422626;32;19961;-57
2021/05/25 04:00:47;;;;;;;;;;;;;;;20.51;35.80;99631.91;4431966;32;20602;-57
2021/05/25 04:03:13;;;;;;;;;;;;;;;20.49;35.86;99636.28;4400223;32;20017;-58
2021/05/25 04:05:39;;;;;;;;;;;;;;;20.50;35.90;99633.66;4402336;32;19965;-56
2021/05/25 04:08:05;;;;;;;;;;;;;;;20.55;35.86;99645.97;4401858;32;19991;-57
2021/05/25 04:10:31;;;;;;;;;;;;;;;20.52;35.92;99640.69;4400668;32;19950;-58
2021/05/25 04:12:57;;;;;;;;;;;;;;;20.50;36.03;99646.88;4407284;32;19985;-58
2021/05/25 04:15:24;;;;;;;;;;;;;;;20.56;36.18;99642.44;4416832;32;20040;-58
2021/05/25 04:17:52;;;;;;;;;;;;;;;20.57;35.77;99638.94;4410855;32;20553;-57
2021/05/25 04:20:18;;;;;;;;;;;;;;;20.57;35.77;99636.31;4399811;32;19974;-57
2021/05/25 04:22:44;;;;;;;;;;;;;;;20.57;35.72;99649.53;4415492;32;20272;-57
2021/05/25 04:25:10;;;;;;;;;;;;;;;20.58;35.72;99643.34;4417059;32;19946;-57
2021/05/25 04:27:36;;;;;;;;;;;;;;;20.56;35.93;99646.00;4416225;32;19946;-58
2021/05/25 04:30:02;;;;;;;;;;;;;;;20.56;35.93;99645.09;4416209;32;19957;-57
2021/05/25 04:32:28;;;;;;;;;;;;;;;20.58;35.84;99646.00;4412127;32;19978;-57
2021/05/25 04:34:53;;;;;;;;;;;;;;;20.58;35.58;99661.88;4415090;32;19957;-57
2021/05/25 04:37:19;;;;;;;;;;;;;;;20.50;36.10;99664.53;4415271;32;20015;-59
2021/05/25 04:39:45;;;;;;;;;;;;;;;20.53;36.00;99663.63;4402072;32;20315;-58
2021/05/25 04:42:11;;;;;;;;;;;;;;;20.49;35.86;99674.19;4402041;32;19957;-57
2021/05/25 04:44:37;;;;;;;;;;;;;;;20.45;35.90;99666.25;4404217;32;20020;-58
2021/05/25 04:47:03;;;;;;;;;;;;;;;20.50;36.01;99665.37;4404465;32;19969;-57
2021/05/25 04:49:29;;;;;;;;;;;;;;;20.52;35.85;99667.16;4406453;32;19938;-58
2021/05/25 04:51:55;;;;;;;;;;;;;;;20.52;35.78;99668.03;4410109;32;20311;-58
2021/05/25 04:54:20;;;;;;;;;;;;;;;20.53;36.14;99668.91;4426227;32;19958;-58
2021/05/25 04:56:46;;;;;;;;;;;;;;;20.52;35.85;99669.78;4426937;32;19990;-57
2021/05/25 04:59:12;;;;;;;;;;;;;;;20.49;35.93;99679.50;4416381;32;20688;-58
2021/05/25 05:01:38;;;;;;;;;;;;;;;20.48;35.88;99677.72;4404786;32;19950;-58
2021/05/25 05:04:04;;;;;;;;;;;;;;;20.52;35.87;99683.00;4411209;32;19954;-57
2021/05/25 05:06:30;;;;;;;;;;;;;;;20.55;35.86;99685.66;4416547;32;19965;-57
2021/05/25 05:08:56;;;;;;;;;;;;;;;20.49;36.02;99690.06;4418597;32;19973;-58
2021/05/25 05:11:22;;;;;;;;;;;;;;;20.44;35.92;99691.84;4418700;32;19938;-58
2021/05/25 05:13:48;;;;;;;;;;;;;;;20.45;35.98;99688.31;4424093;32;20032;-58
2021/05/25 05:16:14;;;;;;;;;;;;;;;20.46;35.86;99690.06;4423846;32;19957;-57
2021/05/25 05:18:40;;;;;;;;;;;;;;;20.46;36.02;99690.06;4425890;32;20323;-57
2021/05/25 05:21:06;;;;;;;;;;;;;;;20.45;36.02;99692.72;4425179;32;19934;-57
2021/05/25 05:23:31;;;;;;;;;;;;;;;20.50;36.04;99702.41;4427993;32;19982;-58
2021/05/25 05:25:57;;;;;;;;;;;;;;;20.50;35.84;99702.41;4426608;32;19990;-57
2021/05/25 05:28:23;;;;;;;;;;;;;;;20.53;35.89;99700.66;4427716;32;19953;-57
2021/05/25 05:30:49;;;;;;;;;;;;;;;20.54;35.86;99697.13;4426036;32;19949;-57
2021/05/25 05:33:15;;;;;;;;;;;;;;;20.48;35.97;99711.22;4427077;32;19958;-57
2021/05/25 05:35:41;;;;;;;;;;;;;;;20.46;35.88;99713.88;4433916;32;19942;-58
2021/05/25 05:38:07;;;;;;;;;;;;;;;20.43;36.05;99711.19;4434052;32;19973;-57
2021/05/25 05:40:34;;;;;;;;;;;;;;;20.47;35.82;99713.00;4420440;32;20416;-55
2021/05/25 05:43:00;;;;;;;;;;;;;;;20.46;35.84;99713.88;4418153;32;19942;-58
2021/05/25 05:45:26;;;;;;;;;;;;;;;20.49;35.82;99720.91;4431005;32;20352;-58
2021/05/25 05:47:52;;;;;;;;;;;;;;;20.45;36.03;99714.75;4432883;32;19997;-57
2021/05/25 05:50:17;;;;;;;;;;;;;;;20.49;35.83;99720.91;4424852;32;19990;-57
2021/05/25 05:52:43;;;;;;;;;;;;;;;20.48;35.93;99725.34;4425964;32;20251;-58
2021/05/25 05:55:09;;;;;;;;;;;;;;;20.45;36.03;99720.06;4420574;32;19950;-57
2021/05/25 05:57:36;;;;;;;;;;;;;;;20.46;35.97;99727.09;4424843;32;19957;-58
2021/05/25 06:00:02;;;;;;;;;;;;;;;20.46;36.05;99719.16;4426200;32;19934;-58
2021/05/25 06:02:28;;;;;;;;;;;;;;;20.43;36.05;99721.78;4420296;32;19997;-58
2021/05/25 06:04:54;;;;;;;;;;;;;;;20.49;36.07;99721.81;4423897;32;19950;-58
2021/05/25 06:07:20;;;;;;;;;;;;;;;20.53;35.90;99719.16;4433558;32;19950;-58
2021/05/25 06:09:47;;;;;;;;;;;;;;;20.52;35.80;99717.41;4429263;32;19950;-58
2021/05/25 06:12:13;;;;;;;;;;;;;;;20.48;36.00;99720.03;4418939;32;20017;-57
2021/05/25 06:14:38;;;;;;;;;;;;;;;20.48;35.93;99720.03;4422560;32;19958;-58
2021/05/25 06:17:04;;;;;;;;;;;;;;;20.49;35.86;99716.53;4433962;32;19938;-57
2021/05/25 06:19:30;;;;;;;;;;;;;;;20.49;35.90;99716.53;4430135;32;20305;-58
2021/05/25 06:21:56;;;;;;;;;;;;;;;20.46;35.96;99713.88;4418253;32;19976;-58
2021/05/25 06:24:22;;;;;;;;;;;;;;;20.46;35.99;99716.53;4419992;32;20044;-58
2021/05/25 06:26:48;;;;;;;;;;;;;;;20.49;35.98;99716.53;4434468;32;19984;-58
2021/05/25 06:29:14;;;;;;;;;;;;;;;20.48;36.09;99709.47;4432960;32;19978;-58
2021/05/25 06:31:40;;;;;;;;;;;;;;;20.48;36.02;99709.47;4421367;32;19953;-57
2021/05/25 06:34:06;;;;;;;;;;;;;;;20.44;36.07;99706.81;4418484;32;19983;-57
2021/05/25 06:36:32;;;;;;;;;;;;;;;20.45;36.12;99708.56;4418341;32;19950;-57
2021/05/25 06:38:58;;;;;;;;;;;;;;;20.49;35.99;99712.97;4429541;32;19994;-59
2021/05/25 06:41:23;;;;;;;;;;;;;;;20.55;35.91;99707.72;4417118;32;20064;-57
2021/05/25 06:43:49;;;;;;;;;;;;;;;20.50;36.18;99718.28;4418280;32;19949;-57
2021/05/25 06:46:15;;;;;;;;;;;;;;;20.55;35.88;99706.81;4428092;32;20376;-58
2021/05/25 06:48:41;;;;;;;;;;;;;;;20.46;36.29;99721.81;4429627;32;19968;-58
2021/05/25 06:51:07;;;;;;;;;;;;;;;20.34;36.69;99712.06;4419642;32;19986;-57
2021/05/25 06:53:33;;;;;;;;;;;;;;;20.36;36.46;99714.75;4416755;32;19962;-57
2021/05/25 06:55:59;;;;;;;;;;;;;;;20.33;36.49;99712.97;4424540;32;20687;-58
2021/05/25 06:58:25;;;;;;;;;;;;;;;20.28;36.91;99711.19;4428353;32;20009;-57
2021/05/25 07:00:51;;;;;;;;;;;;;;;20.29;36.68;99720.88;4423206;32;20294;-57
2021/05/25 07:03:17;;;;;;;;;;;;;;;20.29;36.87;99715.59;4430136;32;19995;-58
2021/05/25 07:05:43;;;;;;;;;;;;;;;20.38;36.46;99718.25;4426490;32;19951;-58
2021/05/25 07:08:09;;;;;;;;;;;;;;;20.33;36.69;99714.75;4415608;32;19977;-57
2021/05/25 07:10:35;;;;;;;;;;;;;;;20.30;36.76;99715.59;4418613;32;19962;-57
2021/05/25 07:13:01;;;;;;;;;;;;;;;20.28;36.81;99727.94;4432001;32;19972;-58
2021/05/25 07:15:26;;;;;;;;;;;;;;;20.26;36.93;99723.53;4429686;32;20343;-57
2021/05/25 07:17:58;;;;;;;;;;;;;;;20.29;36.83;99728.81;4417048;32;19969;-57
2021/05/25 07:20:24;;;;;;;;;;;;;;;20.29;36.78;99732.34;4417589;32;19938;-57
2021/05/25 07:22:54;;;;;;;;;;;;;;;20.35;36.69;99723.56;4431448;32;20024;-57
2021/05/25 07:25:20;;;;;;;;;;;;;;;20.40;36.61;99727.06;4430714;32;19968;-56
2021/05/25 07:27:46;;;;;;;;;;;;;;;20.27;36.81;99727.94;4417142;32;19950;-56
2021/05/25 07:30:12;;;;;;;;;;;;;;;20.30;36.73;99726.19;4429281;32;19957;-58
2021/05/25 07:32:38;;;;;;;;;;;;;;;20.32;36.75;99735.00;4416898;32;20313;-57
2021/05/25 07:35:05;;;;;;;;;;;;;;;20.39;36.59;99730.59;4415987;32;19990;-57
2021/05/25 07:37:31;;;;;;;;;;;;;;;20.33;36.86;99735.88;4430315;32;19995;-57
2021/05/25 07:39:57;;;;;;;;;;;;;;;20.34;36.84;99737.66;4431317;32;19993;-57
2021/05/25 07:42:23;;;;;;;;;;;;;;;20.34;36.83;99732.38;4421361;32;20615;-57
2021/05/25 07:44:49;;;;;;;;;;;;;;;20.39;36.74;99733.25;4417216;32;19984;-57
2021/05/25 07:47:15;;;;;;;;;;;;;;;20.40;36.77;99729.72;4426404;32;19949;-57
2021/05/25 07:49:41;;;;;;;;;;;;;;;20.35;36.82;99742.06;4431294;32;19949;-55
2021/05/25 07:52:06;;;;;;;;;;;;;;;20.38;36.80;99741.19;4410527;32;20009;-57
2021/05/25 07:54:32;;;;;;;;;;;;;;;20.37;36.81;99750.88;4415320;32;19938;-58
2021/05/25 07:56:58;;;;;;;;;;;;;;;20.38;36.74;99750.00;4424427;32;19950;-57
2021/05/25 07:59:24;;;;;;;;;;;;;;;20.37;36.75;99742.94;4429796;32;20012;-57
2021/05/25 08:01:51;;;;;;;;;;;;;;;20.48;36.63;99761.47;4430499;32;19972;-58
2021/05/25 08:04:18;;;;;;;;;;;;;;;20.55;36.51;99767.66;4430966;32;20050;-59
2021/05/25 08:06:43;;;;;;;;;;;;;;;19.14;37.70;99770.47;4430938;32;19957;-52
2021/05/25 08:09:09;;;;;;;;;;;;;;;18.74;38.94;99766.59;4430571;32;19990;-55
2021/05/25 08:11:35;;;;;;;;;;;;;;;18.35;39.49;99778.50;4427406;32;19950;-54
2021/05/25 08:14:05;;;;;;;;;;;;;;;17.95;40.45;99779.72;4416807;32;19981;-52
2021/05/25 08:16:31;;;;;;;;;;;;;;;17.28;41.25;99791.06;4418500;32;19983;-54
2021/05/25 08:21:36;;;;;;;;;;;;;;;17.35;41.53;99787.69;4432581;32;20346;-54
2021/05/25 08:24:02;;;;;;;;;;;;;;;17.07;42.01;99789.84;4423727;32;19958;-54
2021/05/25 08:26:28;;;;;;;;;;;;;;;16.99;42.15;99800.25;4431911;32;19937;-55
2021/05/25 08:28:54;;;;;;;;;;;;;;;16.33;43.80;99802.53;4419035;32;20642;-55
2021/05/25 08:31:20;;;;;;;;;;;;;;;15.94;44.48;99803.47;4418072;32;19942;-55
2021/05/25 08:33:46;;;;;;;;;;;;;;;15.98;44.49;99800.06;4433480;32;20376;-54
2021/05/25 08:36:12;;;;;;;;;;;;;;;16.27;44.32;99792.78;4431700;32;19956;-55
2021/05/25 08:38:38;;;;;;;;;;;;;;;16.54;43.56;99802.06;4418121;32;20003;-53
2021/05/25 08:41:04;;;;;;;;;;;;;;;16.22;44.18;99794.41;4419108;32;19958;-54
2021/05/25 08:43:32;;;;;;;;;;;;;;;16.20;44.44;99796.13;4432167;32;19945;-53
2021/05/25 08:45:58;;;;;;;;;;;;;;;15.99;45.01;99807.06;4433999;32;20612;-51
2021/05/25 08:48:24;;;;;;;;;;;;;;;15.91;44.73;99812.16;4421363;32;19962;-55
2021/05/25 08:50:49;;;;;;;;;;;;;;;16.01;44.68;99811.50;4416295;32;19989;-54
2021/05/25 08:53:15;;;;;;;;;;;;;;;16.20;44.44;99824.16;4427317;32;20290;-53
2021/05/25 08:55:46;;;;;;;;;;;;;;;16.25;44.14;99826.03;4433411;32;19950;-54
2021/05/25 08:58:11;;;;;;;;;;;;;;;15.91;45.37;99808.63;4424715;32;19950;-55
2021/05/25 09:00:37;;;;;;;;;;;;;;;15.74;45.98;99817.91;4418568;32;19965;-55
2021/05/25 09:03:03;;;;;;;;;;;;;;;15.84;45.90;99812.84;4425602;32;20369;-56
2021/05/25 09:05:29;;;;;;;;;;;;;;;15.82;45.43;99812.81;4433375;32;20330;-52
2021/05/25 09:07:55;;;;;;;;;;;;;;;16.08;45.12;99814.25;4427147;32;19954;-56
2021/05/25 09:10:22;;;;;;;;;;;;;;;15.75;45.77;99808.28;4417673;32;19934;-54
2021/05/25 09:12:48;;;;;;;;;;;;;;;16.06;45.13;99808.09;4423218;32;19957;-49
2021/05/25 09:15:15;;;;;;;;;;;;;;;16.01;44.93;99814.12;4433510;32;19955;-55
2021/05/25 09:17:41;;;;;;;;;;;;;;;15.91;45.38;99820.03;4429063;32;19949;-56
2021/05/25 09:20:09;;;;;;;;;;;;;;;15.59;45.51;99828.94;4417606;32;19961;-52
2021/05/25 09:22:35;;;;;;;;;;;;;;;15.47;45.81;99818.16;4420511;32;20858;-51
2021/05/25 09:25:01;;;;;;;;;;;;;;;15.52;45.73;99831.38;4434626;32;19938;-55
2021/05/25 09:27:27;;;;;;;;;;;;;;;15.50;45.74;99833.09;4431820;32;19950;-53
2021/05/25 09:29:53;;;;;;;;;;;;;;;15.67;45.48;99831.72;4418782;32;20303;-56
2021/05/25 09:32:19;;;;;;;;;;;;;;;15.88;45.12;99835.72;4419073;32;19958;-54
2021/05/25 09:34:45;;;;;;;;;;;;;;;15.99;44.51;99833.34;4429689;32;20364;-52
2021/05/25 09:37:10;;;;;;;;;;;;;;;15.99;44.42;99843.84;4425405;32;19968;-55
2021/05/25 09:39:36;;;;;;;;;;;;;;;16.15;44.16;99838.06;4433594;32;19996;-56
2021/05/25 09:42:02;;;;;;;;;;;;;;;16.01;44.76;99835.16;4430501;32;20640;-56
2021/05/25 09:44:28;;;;;;;;;;;;;;;15.80;45.27;99838.12;4421300;32;19950;-54
2021/05/25 09:46:54;;;;;;;;;;;;;;;15.89;44.57;99847.97;4417330;32;20405;-57
2021/05/25 09:49:20;;;;;;;;;;;;;;;15.67;44.75;99852.72;4426747;32;20605;-57
2021/05/25 09:51:46;;;;;;;;;;;;;;;15.73;44.46;99852.84;4431371;32;20347;-56
2021/05/25 09:54:12;;;;;;;;;;;;;;;15.42;45.49;99846.00;4422411;32;19991;-53
2021/05/25 09:56:38;;;;;;;;;;;;;;;15.36;45.63;99857.22;4416990;32;19966;-55
2021/05/25 09:59:04;;;;;;;;;;;;;;;15.56;45.36;99868.22;4424541;32;19961;-50
2021/05/25 10:01:30;;;;;;;;;;;;;;;15.84;44.88;99867.97;4421654;32;19961;-46
2021/05/25 10:03:56;;;;;;;;;;;;;;;16.45;43.76;99864.94;4416313;32;20272;-48
2021/05/25 10:06:22;;;;;;;;;;;;;;;16.51;43.76;99864.19;4426839;32;19999;-45
2021/05/25 10:08:49;;;;;;;;;;;;;;;16.92;42.88;99861.50;4427205;32;19961;-47
2021/05/25 10:11:15;;;;;;;;;;;;;;;17.19;42.26;99848.81;4417403;32;20256;-48
2021/05/25 10:13:41;;;;;;;;;;;;;;;17.54;41.48;99845.88;4419829;32;19956;-49
2021/05/25 10:16:08;;;;;;;;;;;;;;;17.84;40.76;99844.56;4425034;32;20020;-49
2021/05/25 10:21:06;;;;;;;;;;;;;;;18.27;39.94;99849.56;4423000;32;19942;-47
2021/05/25 10:23:35;;;;;;;;;;;;;;;18.45;39.65;99853.31;4422046;32;20388;-44
2021/05/25 10:26:01;;;;;;;;;;;;;;;18.52;39.42;99856.03;4410097;32;19960;-47
2021/05/25 10:28:27;;;;;;;;;;;;;;;18.62;39.28;99864.03;4419982;32;19954;-45
2021/05/25 10:30:56;;;;;;;;;;;;;;;18.63;39.27;99850.00;4432742;32;20308;-49
2021/05/25 10:33:22;;;;;;;;;;;;;;;18.70;39.18;99856.22;4433284;32;20381;-44
2021/05/25 10:35:48;;;;;;;;;;;;;;;18.75;39.13;99863.31;4418397;32;19987;-47
2021/05/25 10:38:14;;;;;;;;;;;;;;;18.85;38.92;99860.78;4417825;32;19953;-47
2021/05/25 10:40:40;;;;;;;;;;;;;;;18.98;38.67;99867.94;4431186;32;20309;-44
2021/05/25 10:43:06;;;;;;;;;;;;;;;19.01;38.67;99870.66;4428842;32;19973;-46
2021/05/25 10:45:32;;;;;;;;;;;;;;;19.12;38.49;99872.50;4423612;32;19993;-47
2021/05/25 10:47:59;;;;;;;;;;;;;;;19.18;38.38;99872.56;4423685;32;19942;-45
2021/05/25 10:50:27;;;;;;;;;;;;;;;19.24;38.29;99872.63;4420473;32;19958;-44
2021/05/25 10:52:53;;;;;;;;;;;;;;;19.41;38.07;99874.50;4417087;32;19957;-46
2021/05/25 10:55:19;;;;;;;;;;;;;;;19.51;37.85;99876.38;4429052;32;19954;-45
2021/05/25 10:57:49;;;;;;;;;;;;;;;19.53;37.79;99879.91;4431003;32;20307;-46
2021/05/25 11:00:14;;;;;;;;;;;;;;;19.57;37.79;99881.72;4426045;32;20335;-45
2021/05/25 11:02:40;;;;;;;;;;;;;;;19.56;37.87;99885.19;4433191;32;19942;-49
2021/05/25 11:05:06;;;;;;;;;;;;;;;19.59;37.83;99895.81;4425285;32;19942;-44
2021/05/25 11:07:32;;;;;;;;;;;;;;;19.69;37.66;99899.41;4425706;32;19957;-43
2021/05/25 11:09:58;;;;;;;;;;;;;;;19.67;37.69;99909.94;4421296;32;20350;-47
2021/05/25 11:12:24;;;;;;;;;;;;;;;19.70;37.70;99905.59;4421936;32;19989;-50
2021/05/25 11:14:50;;;;;;;;;;;;;;;19.62;37.91;99911.69;4419976;32;19984;-47
2021/05/25 11:17:16;;;;;;;;;;;;;;;19.65;37.94;99911.69;4427645;32;19969;-44
2021/05/25 11:19:56;;;;;;;;;;;;;;;19.74;37.79;99920.56;4427900;32;20106;-46
2021/05/25 11:22:23;;;;;;;;;;;;;;;19.77;37.78;99920.59;4419560;32;19954;-44
2021/05/25 11:24:50;;;;;;;;;;;;;;;19.79;37.77;99929.41;4418341;32;19958;-46
2021/05/25 11:27:16;;;;;;;;;;;;;;;19.79;37.80;99935.59;4416612;32;19954;-45
2021/05/25 11:29:42;;;;;;;;;;;;;;;19.85;37.73;99939.13;4419432;32;20024;-45
2021/05/25 11:32:08;;;;;;;;;;;;;;;19.87;37.77;99945.31;4428606;32;20023;-47
2021/05/25 11:34:34;;;;;;;;;;;;;;;19.89;37.83;99954.16;4422875;32;19957;-45
2021/05/25 11:37:00;;;;;;;;;;;;;;;19.92;37.83;99947.16;4420247;32;20326;-44
2021/05/25 11:39:26;;;;;;;;;;;;;;;20.01;37.71;99945.47;4426812;32;19957;-45
2021/05/25 11:41:52;;;;;;;;;;;;;;;19.98;37.75;99961.31;4428024;32;20373;-57
2021/05/25 11:44:20;;;;;;;;;;;;;;;19.92;38.07;99976.22;4423096;32;19987;-56
2021/05/25 11:46:46;;;;;;;;;;;;;;;17.12;45.07;99980.28;4425753;32;19958;-58
2021/05/25 11:49:12;;;;;;;;;;;;;;;16.23;47.75;99966.94;4417787;32;19957;-57
2021/05/25 11:51:38;;;;;;;;;;;;;;;15.99;48.96;99962.94;4416401;32;19991;-58
2021/05/25 11:54:04;;;;;;;;;;;;;;;15.72;48.55;99958.72;4428081;32;19950;-58
2021/05/25 11:56:30;;;;;;;;;;;;;;;15.57;49.81;99934.72;4425970;32;19954;-58
2021/05/25 11:58:56;;;;;;;;;;;;;;;15.81;49.68;99941.44;4417532;32;19950;-58
2021/05/25 12:01:22;;;;;;;;;;;;;;;16.33;48.55;99943.53;4429798;32;19992;-59
2021/05/25 12:03:49;;;;;;;;;;;;;;;16.41;48.91;99936.69;4410415;32;19965;-56
2021/05/25 12:06:15;;;;;;;;;;;;;;;16.41;49.01;99920.94;4408110;32;19961;-57
2021/05/25 12:08:41;;;;;;;;;;;;;;;16.24;50.08;99939.84;4426127;32;19982;-55
2021/05/25 12:11:07;;;;;;;;;;;;;;;16.42;48.97;99938.47;4422913;32;20355;-55
2021/05/25 12:13:32;;;;;;;;;;;;;;;16.63;49.08;99940.66;4429791;32;19962;-57
2021/05/25 12:15:58;;;;;;;;;;;;;;;16.87;49.44;99947.28;4425803;32;20035;-57
2021/05/25 12:18:25;;;;;;;;;;;;;;;16.90;48.89;99938.56;4412243;32;19969;-57
2021/05/25 12:20:51;;;;;;;;;;;;;;;16.96;49.56;99933.41;4421851;32;20011;-54
2021/05/25 12:23:18;;;;;;;;;;;;;;;16.93;48.71;99925.47;4424779;32;20037;-56
2021/05/25 12:25:51;;;;;;;;;;;;;;;16.99;47.71;99925.63;4430625;32;19957;-55
2021/05/25 12:28:18;;;;;;;;;;;;;;;17.20;47.51;99921.62;4421342;32;20019;-57
2021/05/25 12:30:44;;;;;;;;;;;;;;;16.97;47.85;99938.72;4421906;32;19961;-55
2021/05/25 12:33:09;;;;;;;;;;;;;;;17.19;46.92;99933.00;4432916;32;19984;-55
2021/05/25 12:35:37;;;;;;;;;;;;;;;16.67;47.85;99939.00;4430997;32;19965;-56
2021/05/25 12:38:03;;;;;;;;;;;;;;;16.31;49.88;99940.87;4418466;32;19969;-55
2021/05/25 12:40:29;;;;;;;;;;;;;;;16.51;48.23;99938.69;4419326;32;19955;-56
2021/05/25 12:42:55;;;;;;;;;;;;;;;16.63;48.42;99937.16;4434617;32;20252;-55
2021/05/25 12:45:25;;;;;;;;;;;;;;;16.70;48.46;99949.56;4419134;32;20076;-55
2021/05/25 12:47:51;;;;;;;;;;;;;;;16.72;50.28;99935.59;4415368;32;21120;-57
2021/05/25 12:50:17;;;;;;;;;;;;;;;17.13;49.74;99945.22;4415895;32;19958;-56
2021/05/25 12:52:45;;;;;;;;;;;;;;;17.11;48.78;99946.94;4429828;32;19996;-56